Time;durP1;ratioP1;P1;durP2;ratioP2;P2;SDS_P1;SDS_P2;PMS_P1;PMS_P2;Temp;Humidity;BMP_temperature;BMP_pressure;BME280_temperature;BME280_humidity;BME280_pressure;Samples;Min_cycle;Max_cycle;Signal;HPM_P1;HPM_P2
2023/04/18 00:01:14;;;;;;;5.78;4.65;;;;;;;;;;5044109;28;20049;-69
2023/04/18 00:03:40;;;;;;;5.38;4.72;;;;;;;;;;5045685;28;20140;-68
2023/04/18 00:06:06;;;;;;;5.25;4.75;;;;;;;;;;5046373;28;20112;-69
2023/04/18 00:08:33;;;;;;;7.35;5.28;;;;;;;;;;5043635;28;20055;-68
2023/04/18 00:10:59;;;;;;;9.18;6.05;;;;;;;;;;5045843;28;20441;-68
2023/04/18 00:13:27;;;;;;;7.28;6.45;;;;;;;;;;5044180;28;20415;-68
2023/04/18 00:15:54;;;;;;;6.65;5.95;;;;;;;;;;5045211;28;20116;-68
2023/04/18 00:18:20;;;;;;;7.32;5.65;;;;;;;;;;5043114;28;20056;-68
2023/04/18 00:20:46;;;;;;;7.68;5.97;;;;;;;;;;5045593;28;20642;-68
2023/04/18 00:23:15;;;;;;;6.97;4.95;;;;;;;;;;5045127;28;20457;-68
2023/04/18 00:25:41;;;;;;;6.40;5.30;;;;;;;;;;5045671;28;20041;-68
2023/04/18 00:28:07;;;;;;;6.57;5.97;;;;;;;;;;5044013;28;20056;-68
2023/04/18 00:30:33;;;;;;;6.97;5.50;;;;;;;;;;5045018;28;20051;-68
2023/04/18 00:32:59;;;;;;;6.18;5.57;;;;;;;;;;5045148;28;20045;-68
2023/04/18 00:35:25;;;;;;;8.63;7.38;;;;;;;;;;5045108;28;20063;-68
2023/04/18 00:37:51;;;;;;;8.52;6.05;;;;;;;;;;5043414;28;20052;-68
2023/04/18 00:40:17;;;;;;;7.07;5.93;;;;;;;;;;5044403;28;20106;-68
2023/04/18 00:42:43;;;;;;;7.85;6.05;;;;;;;;;;5043289;28;20045;-68
2023/04/18 00:45:09;;;;;;;7.18;5.40;;;;;;;;;;5043439;28;20076;-68
2023/04/18 00:47:35;;;;;;;7.13;5.47;;;;;;;;;;5044360;28;20179;-68
2023/04/18 00:50:01;;;;;;;7.30;5.53;;;;;;;;;;5043337;28;20479;-69
2023/04/18 00:52:27;;;;;;;7.25;5.22;;;;;;;;;;5045287;28;20049;-68
2023/04/18 00:54:54;;;;;;;7.15;5.18;;;;;;;;;;5045090;28;20040;-68
2023/04/18 00:57:21;;;;;;;7.15;5.63;;;;;;;;;;5040828;28;20049;-68
2023/04/18 00:59:47;;;;;;;4.93;4.43;;;;;;;;;;5043956;28;20110;-68
2023/04/18 01:02:13;;;;;;;8.82;5.97;;;;;;;;;;5042138;28;20052;-68
2023/04/18 01:04:41;;;;;;;5.75;4.80;;;;;;;;;;5043031;28;20179;-68
2023/04/18 01:07:08;;;;;;;4.95;4.50;;;;;;;;;;5044916;28;20044;-68
2023/04/18 01:09:34;;;;;;;6.68;5.10;;;;;;;;;;5044929;28;20083;-68
2023/04/18 01:12:00;;;;;;;4.78;4.32;;;;;;;;;;5042337;28;20049;-68
2023/04/18 01:14:26;;;;;;;5.65;3.92;;;;;;;;;;5043018;28;20167;-67
2023/04/18 01:16:52;;;;;;;6.90;4.95;;;;;;;;;;5042061;28;20558;-68
2023/04/18 01:19:18;;;;;;;8.50;5.20;;;;;;;;;;5043619;28;20111;-68
2023/04/18 01:21:44;;;;;;;6.80;4.90;;;;;;;;;;5042843;28;20478;-68
2023/04/18 01:24:11;;;;;;;6.43;5.68;;;;;;;;;;5044557;28;20044;-68
2023/04/18 01:26:37;;;;;;;6.55;5.28;;;;;;;;;;5043698;28;20056;-68
2023/04/18 01:29:03;;;;;;;8.55;5.75;;;;;;;;;;5044658;28;20128;-68
2023/04/18 01:31:30;;;;;;;7.05;5.28;;;;;;;;;;5041672;28;20056;-68
2023/04/18 01:33:55;;;;;;;6.60;5.55;;;;;;;;;;5042146;28;20045;-68
2023/04/18 01:36:21;;;;;;;5.25;4.47;;;;;;;;;;5044782;28;20114;-68
2023/04/18 01:38:47;;;;;;;5.05;4.55;;;;;;;;;;5040786;28;20509;-67
2023/04/18 01:41:13;;;;;;;7.22;4.97;;;;;;;;;;5042161;28;20092;-68
2023/04/18 01:43:39;;;;;;;6.65;5.13;;;;;;;;;;5043795;28;20060;-68
2023/04/18 01:46:05;;;;;;;5.88;5.05;;;;;;;;;;5043630;28;20045;-68
2023/04/18 01:48:32;;;;;;;5.75;4.45;;;;;;;;;;5042567;28;20972;-68
2023/04/18 01:50:58;;;;;;;4.82;4.18;;;;;;;;;;5042639;28;20048;-68
2023/04/18 01:53:24;;;;;;;5.65;4.47;;;;;;;;;;5043553;28;20755;-68
2023/04/18 01:55:50;;;;;;;4.45;4.05;;;;;;;;;;5044013;28;20064;-68
2023/04/18 01:58:21;;;;;;;5.05;3.97;;;;;;;;;;5043870;28;20044;-67
2023/04/18 02:00:47;;;;;;;4.88;4.38;;;;;;;;;;5041685;28;20371;-68
2023/04/18 02:03:13;;;;;;;6.03;4.78;;;;;;;;;;5042496;28;20071;-68
2023/04/18 02:05:39;;;;;;;5.80;4.32;;;;;;;;;;5042254;28;20475;-68
2023/04/18 02:08:05;;;;;;;4.28;3.88;;;;;;;;;;5040547;28;20049;-67
2023/04/18 02:10:31;;;;;;;5.97;5.10;;;;;;;;;;5043876;28;20068;-68
2023/04/18 02:12:57;;;;;;;4.40;4.00;;;;;;;;;;5043748;28;20126;-68
2023/04/18 02:15:24;;;;;;;4.07;3.35;;;;;;;;;;5042944;28;20044;-68
2023/04/18 02:17:50;;;;;;;7.45;3.72;;;;;;;;;;5043715;28;20045;-67
2023/04/18 02:20:16;;;;;;;3.90;3.50;;;;;;;;;;5042327;28;20051;-67
2023/04/18 02:22:43;;;;;;;3.65;3.22;;;;;;;;;;5043027;28;20052;-68
2023/04/18 02:25:09;;;;;;;5.78;3.03;;;;;;;;;;5041372;28;20044;-68
2023/04/18 02:27:35;;;;;;;5.70;3.85;;;;;;;;;;5043564;28;20036;-68
2023/04/18 02:30:02;;;;;;;3.70;3.40;;;;;;;;;;5041756;28;20688;-67
2023/04/18 02:32:28;;;;;;;4.68;3.88;;;;;;;;;;5042479;28;20053;-68
2023/04/18 02:34:53;;;;;;;3.97;3.67;;;;;;;;;;5042083;28;20119;-68
2023/04/18 02:37:19;;;;;;;4.78;4.25;;;;;;;;;;5040615;28;20774;-68
2023/04/18 02:39:45;;;;;;;4.18;3.78;;;;;;;;;;5041922;28;20139;-68
2023/04/18 02:42:11;;;;;;;6.78;4.85;;;;;;;;;;5043218;28;20877;-68
2023/04/18 02:44:37;;;;;;;4.22;3.80;;;;;;;;;;5043186;28;20057;-67
2023/04/18 02:47:03;;;;;;;4.63;3.92;;;;;;;;;;5042158;28;20483;-68
2023/04/18 02:49:29;;;;;;;4.35;3.95;;;;;;;;;;5040934;28;20052;-68
2023/04/18 02:51:55;;;;;;;4.90;3.92;;;;;;;;;;5041451;28;20048;-67
2023/04/18 02:54:22;;;;;;;4.63;3.90;;;;;;;;;;5039442;28;20055;-68
2023/04/18 02:56:48;;;;;;;4.88;3.85;;;;;;;;;;5040913;28;20044;-67
2023/04/18 02:59:14;;;;;;;3.53;3.20;;;;;;;;;;5041968;28;20072;-68
2023/04/18 03:01:40;;;;;;;4.03;3.60;;;;;;;;;;5043156;28;20080;-68
2023/04/18 03:04:06;;;;;;;4.85;3.28;;;;;;;;;;5041278;28;20064;-68
2023/04/18 03:06:32;;;;;;;4.65;3.80;;;;;;;;;;5041553;28;20049;-68
2023/04/18 03:08:58;;;;;;;5.70;4.38;;;;;;;;;;5040912;28;20045;-68
2023/04/18 03:11:24;;;;;;;5.13;4.63;;;;;;;;;;5042185;28;20049;-68
2023/04/18 03:13:50;;;;;;;3.33;3.00;;;;;;;;;;5042518;28;20068;-68
2023/04/18 03:16:17;;;;;;;3.83;3.13;;;;;;;;;;5042906;28;20135;-68
2023/04/18 03:18:43;;;;;;;3.38;3.08;;;;;;;;;;5040620;28;20040;-68
2023/04/18 03:21:10;;;;;;;4.38;3.97;;;;;;;;;;5041633;28;20526;-68
2023/04/18 03:23:36;;;;;;;4.90;3.72;;;;;;;;;;5040727;28;20052;-68
2023/04/18 03:26:02;;;;;;;4.53;3.20;;;;;;;;;;5042213;28;20048;-68
2023/04/18 03:28:28;;;;;;;4.30;3.20;;;;;;;;;;5041100;28;20112;-68
2023/04/18 03:30:54;;;;;;;3.50;3.20;;;;;;;;;;5041711;28;20548;-68
2023/04/18 03:33:21;;;;;;;3.45;3.15;;;;;;;;;;5043200;28;20060;-68
2023/04/18 03:35:47;;;;;;;3.42;2.90;;;;;;;;;;5042706;28;20045;-68
2023/04/18 03:38:13;;;;;;;4.38;3.47;;;;;;;;;;5042845;28;20060;-68
2023/04/18 03:40:41;;;;;;;3.65;2.95;;;;;;;;;;5042134;28;20475;-69
2023/04/18 03:43:07;;;;;;;3.25;2.78;;;;;;;;;;5042210;28;20838;-68
2023/04/18 03:45:33;;;;;;;2.60;2.40;;;;;;;;;;5042871;28;20044;-68
2023/04/18 03:47:59;;;;;;;4.53;3.33;;;;;;;;;;5041541;28;20047;-68
2023/04/18 03:50:25;;;;;;;4.38;3.97;;;;;;;;;;5038645;28;20060;-68
2023/04/18 03:52:51;;;;;;;3.65;3.33;;;;;;;;;;5041280;28;20049;-68
2023/04/18 03:55:18;;;;;;;3.20;2.90;;;;;;;;;;5040658;28;20561;-68
2023/04/18 03:57:44;;;;;;;3.78;3.20;;;;;;;;;;5040889;28;20874;-68
2023/04/18 04:00:11;;;;;;;4.20;3.80;;;;;;;;;;5041657;28;20530;-68
2023/04/18 04:02:37;;;;;;;4.32;3.15;;;;;;;;;;5040812;28;20055;-69
2023/04/18 04:05:03;;;;;;;3.88;3.53;;;;;;;;;;5042983;28;20037;-68
2023/04/18 04:07:30;;;;;;;3.55;3.25;;;;;;;;;;5039723;28;20055;-68
2023/04/18 04:09:57;;;;;;;5.43;3.55;;;;;;;;;;5039979;28;20118;-68
2023/04/18 04:12:23;;;;;;;3.85;3.40;;;;;;;;;;5039524;28;20045;-68
2023/04/18 04:14:49;;;;;;;4.80;3.80;;;;;;;;;;5042848;28;20246;-68
2023/04/18 04:17:15;;;;;;;5.05;4.47;;;;;;;;;;5046087;28;20040;-68
2023/04/18 04:19:41;;;;;;;3.72;3.42;;;;;;;;;;5045765;28;20410;-68
2023/04/18 04:22:07;;;;;;;3.30;2.97;;;;;;;;;;5043921;28;20044;-68
2023/04/18 04:24:34;;;;;;;4.65;4.20;;;;;;;;;;5044778;28;20054;-68
2023/04/18 04:27:00;;;;;;;5.07;3.75;;;;;;;;;;5043900;28;20134;-68
2023/04/18 04:29:27;;;;;;;4.22;3.63;;;;;;;;;;5044650;28;20399;-68
2023/04/18 04:31:54;;;;;;;5.10;3.90;;;;;;;;;;5043876;28;20064;-68
2023/04/18 04:34:20;;;;;;;5.53;4.45;;;;;;;;;;5045419;28;20076;-68
2023/04/18 04:36:46;;;;;;;4.22;3.65;;;;;;;;;;5043374;28;20483;-68
2023/04/18 04:39:13;;;;;;;4.28;3.53;;;;;;;;;;5045668;28;20041;-68
2023/04/18 04:41:39;;;;;;;4.30;3.90;;;;;;;;;;5043613;28;20187;-68
2023/04/18 04:44:05;;;;;;;6.35;3.60;;;;;;;;;;5043147;28;20037;-68
2023/04/18 04:46:32;;;;;;;6.25;3.70;;;;;;;;;;5044302;28;20048;-68
2023/04/18 04:48:59;;;;;;;4.72;4.30;;;;;;;;;;5043101;28;20056;-68
2023/04/18 04:51:26;;;;;;;5.15;4.05;;;;;;;;;;5045027;28;20049;-68
2023/04/18 04:53:52;;;;;;;5.85;5.20;;;;;;;;;;5042422;28;20502;-68
2023/04/18 04:56:19;;;;;;;5.03;4.05;;;;;;;;;;5044565;28;20072;-68
2023/04/18 04:58:46;;;;;;;4.47;4.07;;;;;;;;;;5045018;28;20124;-68
2023/04/18 05:01:12;;;;;;;6.43;4.88;;;;;;;;;;5045195;28;20070;-68
2023/04/18 05:03:37;;;;;;;4.55;4.13;;;;;;;;;;5039525;28;20171;-68
2023/04/18 05:06:04;;;;;;;5.10;4.60;;;;;;;;;;5043337;28;20037;-68
2023/04/18 05:08:30;;;;;;;6.40;5.75;;;;;;;;;;5043275;28;20049;-68
2023/04/18 05:10:56;;;;;;;5.82;5.28;;;;;;;;;;5041964;28;20048;-68
2023/04/18 05:13:21;;;;;;;5.82;5.22;;;;;;;;;;5044653;28;20147;-68
2023/04/18 05:15:48;;;;;;;5.93;5.28;;;;;;;;;;5044777;28;20052;-68
2023/04/18 05:18:14;;;;;;;5.93;4.85;;;;;;;;;;5044376;28;20044;-68
2023/04/18 05:20:40;;;;;;;4.50;4.10;;;;;;;;;;5044092;28;20850;-68
2023/04/18 05:23:06;;;;;;;5.60;4.55;;;;;;;;;;5043889;28;20067;-68
2023/04/18 05:25:32;;;;;;;4.38;3.97;;;;;;;;;;5042776;28;20052;-68
2023/04/18 05:28:00;;;;;;;5.80;4.40;;;;;;;;;;5042977;28;20044;-68
2023/04/18 05:30:26;;;;;;;6.30;5.05;;;;;;;;;;5044506;28;20053;-68
2023/04/18 05:32:52;;;;;;;6.85;5.70;;;;;;;;;;5042480;28;20130;-68
2023/04/18 05:35:18;;;;;;;6.25;5.57;;;;;;;;;;5043706;28;20045;-68
2023/04/18 05:37:44;;;;;;;5.45;4.50;;;;;;;;;;5042701;28;20050;-67
2023/04/18 05:40:11;;;;;;;6.10;4.85;;;;;;;;;;5043882;28;20117;-68
2023/04/18 05:42:37;;;;;;;6.38;5.38;;;;;;;;;;5044109;28;20071;-68
2023/04/18 05:45:03;;;;;;;6.22;5.00;;;;;;;;;;5044300;28;20041;-67
2023/04/18 05:47:29;;;;;;;4.63;4.22;;;;;;;;;;5041594;28;20787;-68
2023/04/18 05:49:55;;;;;;;6.22;5.50;;;;;;;;;;5042719;28;20506;-68
2023/04/18 05:52:21;;;;;;;6.40;5.55;;;;;;;;;;5042070;28;20040;-68
2023/04/18 05:54:47;;;;;;;6.50;5.53;;;;;;;;;;5044032;28;20586;-68
2023/04/18 05:57:13;;;;;;;5.90;5.20;;;;;;;;;;5041803;28;20080;-68
2023/04/18 05:59:39;;;;;;;9.20;6.15;;;;;;;;;;5041653;28;20399;-68
2023/04/18 06:02:11;;;;;;;8.90;6.05;;;;;;;;;;5042449;28;20091;-68
2023/04/18 06:04:38;;;;;;;8.20;6.03;;;;;;;;;;5042893;28;20049;-68
2023/04/18 06:07:04;;;;;;;6.72;6.13;;;;;;;;;;5041430;28;20132;-68
2023/04/18 06:09:30;;;;;;;6.28;5.20;;;;;;;;;;5043506;28;20053;-68
2023/04/18 06:11:57;;;;;;;6.80;5.88;;;;;;;;;;5041334;28;20479;-68
2023/04/18 06:14:23;;;;;;;8.55;7.03;;;;;;;;;;5043248;28;20045;-68
2023/04/18 06:16:49;;;;;;;6.82;6.13;;;;;;;;;;5041621;28;20045;-68
2023/04/18 06:19:15;;;;;;;11.45;6.28;;;;;;;;;;5042389;28;20052;-68
2023/04/18 06:21:41;;;;;;;6.18;5.43;;;;;;;;;;5041493;28;20072;-68
2023/04/18 06:24:07;;;;;;;6.97;6.15;;;;;;;;;;5039573;28;20041;-68
2023/04/18 06:26:34;;;;;;;6.35;5.70;;;;;;;;;;5040930;28;20053;-68
2023/04/18 06:29:00;;;;;;;5.35;4.85;;;;;;;;;;5040410;28;20052;-68
2023/04/18 06:31:26;;;;;;;7.03;5.78;;;;;;;;;;5043370;28;20487;-68
2023/04/18 06:33:52;;;;;;;5.63;4.95;;;;;;;;;;5041969;28;20044;-68
2023/04/18 06:36:18;;;;;;;6.82;5.28;;;;;;;;;;5043044;28;20045;-68
2023/04/18 06:38:44;;;;;;;5.38;4.88;;;;;;;;;;5041010;28;20464;-68
2023/04/18 06:41:10;;;;;;;4.47;4.07;;;;;;;;;;5043156;28;20040;-68
2023/04/18 06:43:36;;;;;;;4.47;4.07;;;;;;;;;;5041128;28;20408;-68
2023/04/18 06:46:04;;;;;;;9.02;6.00;;;;;;;;;;5041700;28;20408;-68
2023/04/18 06:48:30;;;;;;;6.57;5.22;;;;;;;;;;5038485;28;20056;-68
2023/04/18 06:50:56;;;;;;;6.38;5.68;;;;;;;;;;5038927;28;20514;-68
2023/04/18 06:53:22;;;;;;;5.55;4.97;;;;;;;;;;5039429;28;20049;-68
2023/04/18 06:55:48;;;;;;;6.00;5.35;;;;;;;;;;5042508;28;20482;-68
2023/04/18 06:58:15;;;;;;;4.88;4.45;;;;;;;;;;5042659;28;20753;-69
2023/04/18 07:00:42;;;;;;;6.53;5.40;;;;;;;;;;5042239;28;20124;-69
2023/04/18 07:03:11;;;;;;;7.20;4.63;;;;;;;;;;5040271;28;20041;-68
2023/04/18 07:05:38;;;;;;;6.80;4.82;;;;;;;;;;5040238;28;20641;-68
2023/04/18 07:08:04;;;;;;;8.38;7.03;;;;;;;;;;5042885;28;20049;-69
2023/04/18 07:10:30;;;;;;;8.60;7.00;;;;;;;;;;5039216;28;20686;-69
2023/04/18 07:12:56;;;;;;;8.85;6.78;;;;;;;;;;5043319;28;20097;-65
2023/04/18 07:15:22;;;;;;;7.32;6.55;;;;;;;;;;5042913;28;20041;-65
2023/04/18 07:17:48;;;;;;;7.70;6.20;;;;;;;;;;5040002;28;20044;-65
2023/04/18 07:20:14;;;;;;;7.07;6.20;;;;;;;;;;5044338;28;20053;-73
2023/04/18 07:22:41;;;;;;;8.13;5.65;;;;;;;;;;5042993;28;20128;-66
2023/04/18 07:25:07;;;;;;;7.20;5.93;;;;;;;;;;5041919;28;20056;-64
2023/04/18 07:27:35;;;;;;;9.63;6.75;;;;;;;;;;5042317;28;20089;-64
2023/04/18 07:30:01;;;;;;;10.15;7.25;;;;;;;;;;5043568;28;20395;-64
2023/04/18 07:32:27;;;;;;;9.00;6.30;;;;;;;;;;5041371;28;20061;-64
2023/04/18 07:34:53;;;;;;;8.93;6.82;;;;;;;;;;5050473;28;20047;-64
2023/04/18 07:37:20;;;;;;;8.00;7.00;;;;;;;;;;5039296;28;20041;-64
2023/04/18 07:39:47;;;;;;;7.57;5.75;;;;;;;;;;5038769;28;20048;-64
2023/04/18 07:42:13;;;;;;;7.57;6.05;;;;;;;;;;5041664;28;20794;-64
2023/04/18 07:44:39;;;;;;;7.13;6.43;;;;;;;;;;5043262;28;20115;-64
2023/04/18 07:47:08;;;;;;;8.25;5.90;;;;;;;;;;5038168;28;20229;-63
2023/04/18 07:49:35;;;;;;;9.65;5.68;;;;;;;;;;5037426;28;20048;-64
2023/04/18 07:52:01;;;;;;;7.78;6.53;;;;;;;;;;5036107;28;20045;-64
2023/04/18 07:54:27;;;;;;;8.30;6.15;;;;;;;;;;5037577;28;20053;-64
2023/04/18 07:56:53;;;;;;;7.60;6.75;;;;;;;;;;5036168;28;20052;-64
2023/04/18 07:59:19;;;;;;;7.72;6.60;;;;;;;;;;5041902;28;20198;-64
2023/04/18 08:01:45;;;;;;;8.00;6.68;;;;;;;;;;5039556;28;20049;-63
2023/04/18 08:04:11;;;;;;;8.27;6.28;;;;;;;;;;5037292;28;20052;-64
2023/04/18 08:06:37;;;;;;;8.57;6.53;;;;;;;;;;5038063;28;20057;-63
2023/04/18 08:09:04;;;;;;;6.63;5.93;;;;;;;;;;5040718;28;20048;-65
2023/04/18 08:11:34;;;;;;;6.97;5.72;;;;;;;;;;5038551;28;20158;-65
2023/04/18 08:14:00;;;;;;;7.00;6.22;;;;;;;;;;5039500;28;20083;-63
2023/04/18 08:16:26;;;;;;;7.57;6.10;;;;;;;;;;5041362;28;20068;-64
2023/04/18 08:18:52;;;;;;;8.63;6.00;;;;;;;;;;5041785;28;20561;-65
2023/04/18 08:21:18;;;;;;;7.20;5.90;;;;;;;;;;5043786;28;20121;-64
2023/04/18 08:23:45;;;;;;;10.05;5.70;;;;;;;;;;5045870;28;20278;-65
2023/04/18 08:26:11;;;;;;;6.90;6.20;;;;;;;;;;5045451;28;20048;-65
2023/04/18 08:28:37;;;;;;;6.28;5.68;;;;;;;;;;5045224;28;20632;-65
2023/04/18 08:31:03;;;;;;;6.55;5.80;;;;;;;;;;5045279;28;20045;-65
2023/04/18 08:33:29;;;;;;;8.70;6.55;;;;;;;;;;5044968;28;20078;-65
2023/04/18 08:35:55;;;;;;;9.20;7.63;;;;;;;;;;5044639;28;20589;-65
2023/04/18 08:38:21;;;;;;;6.93;6.22;;;;;;;;;;5044908;28;20565;-65
2023/04/18 08:40:47;;;;;;;5.85;5.32;;;;;;;;;;5044739;28;20049;-63
2023/04/18 08:43:14;;;;;;;6.00;5.50;;;;;;;;;;5044681;28;20403;-64
2023/04/18 08:45:41;;;;;;;6.97;5.93;;;;;;;;;;5044922;28;20041;-64
2023/04/18 08:48:12;;;;;;;7.53;5.78;;;;;;;;;;5042322;28;20060;-64
2023/04/18 08:50:38;;;;;;;9.57;6.05;;;;;;;;;;5045633;28;20053;-63
2023/04/18 08:53:04;;;;;;;8.70;6.15;;;;;;;;;;5055924;28;20044;-64
2023/04/18 08:55:32;;;;;;;6.15;5.55;;;;;;;;;;5064568;28;20049;-64
2023/04/18 08:57:58;;;;;;;7.13;5.93;;;;;;;;;;5065651;28;20052;-64
2023/04/18 09:00:26;;;;;;;8.23;5.32;;;;;;;;;;5065313;28;20106;-64
2023/04/18 09:02:58;;;;;;;6.32;5.68;;;;;;;;;;5064866;28;20048;-64
2023/04/18 09:05:25;;;;;;;8.35;6.15;;;;;;;;;;5067207;28;20044;-64
2023/04/18 09:07:55;;;;;;;7.15;5.50;;;;;;;;;;5066835;28;20087;-64
2023/04/18 09:10:28;;;;;;;6.00;5.07;;;;;;;;;;5065310;28;20044;-64
2023/04/18 09:12:55;;;;;;;7.35;5.47;;;;;;;;;;5065538;28;20509;-64
2023/04/18 09:15:22;;;;;;;6.95;4.63;;;;;;;;;;5067047;28;20048;-64
2023/04/18 09:17:49;;;;;;;6.05;5.35;;;;;;;;;;5064513;28;20485;-64
2023/04/18 09:20:34;;;;;;;5.03;4.53;;;;;;;;;;5065156;28;20072;-64
2023/04/18 09:23:02;;;;;;;7.50;5.15;;;;;;;;;;5065958;28;20570;-64
2023/04/18 09:25:39;;;;;;;5.75;4.57;;;;;;;;;;5064519;28;20056;-64
2023/04/18 09:28:05;;;;;;;4.90;4.40;;;;;;;;;;5064934;28;20056;-64
2023/04/18 09:30:36;;;;;;;5.50;4.90;;;;;;;;;;5065555;28;20052;-64
2023/04/18 09:33:03;;;;;;;7.30;5.10;;;;;;;;;;5066040;28;20158;-64
2023/04/18 09:35:30;;;;;;;4.82;4.43;;;;;;;;;;5064628;28;20041;-64
2023/04/18 09:37:56;;;;;;;5.97;5.40;;;;;;;;;;5064116;28;20058;-64
2023/04/18 09:40:22;;;;;;;6.90;5.38;;;;;;;;;;5066544;28;20123;-64
2023/04/18 09:42:51;;;;;;;4.63;4.22;;;;;;;;;;5064332;28;20044;-64
2023/04/18 09:45:17;;;;;;;4.88;4.22;;;;;;;;;;5065309;28;20049;-64
2023/04/18 09:47:44;;;;;;;4.72;4.32;;;;;;;;;;5064485;28;20528;-66
2023/04/18 09:50:10;;;;;;;7.55;4.88;;;;;;;;;;5064631;28;20104;-66
2023/04/18 09:52:38;;;;;;;5.03;4.38;;;;;;;;;;5064080;28;20080;-65
2023/04/18 09:55:05;;;;;;;5.78;4.28;;;;;;;;;;5064481;28;20569;-65
2023/04/18 09:57:32;;;;;;;5.75;5.15;;;;;;;;;;5064506;28;20083;-65
2023/04/18 10:00:01;;;;;;;4.90;4.25;;;;;;;;;;5064750;28;20616;-64
2023/04/18 10:02:28;;;;;;;4.60;4.18;;;;;;;;;;5065695;28;20446;-65
2023/04/18 10:04:55;;;;;;;4.20;3.80;;;;;;;;;;5065730;28;20123;-64
2023/04/18 10:07:22;;;;;;;7.22;4.25;;;;;;;;;;5063715;28;20063;-64
2023/04/18 10:09:48;;;;;;;10.30;4.90;;;;;;;;;;5064497;28;20037;-64
2023/04/18 10:12:16;;;;;;;5.25;3.95;;;;;;;;;;5063070;28;20147;-64
2023/04/18 10:14:42;;;;;;;5.05;4.55;;;;;;;;;;5063187;28;20143;-64
2023/04/18 10:17:10;;;;;;;5.68;4.18;;;;;;;;;;5064977;28;20074;-64
2023/04/18 10:19:40;;;;;;;5.40;4.88;;;;;;;;;;5063504;28;20060;-64
2023/04/18 10:22:06;;;;;;;5.60;4.45;;;;;;;;;;5065624;28;20090;-64
2023/04/18 10:24:46;;;;;;;6.03;4.78;;;;;;;;;;5064315;28;20502;-64
2023/04/18 10:27:12;;;;;;;4.35;3.95;;;;;;;;;;5062874;28;20056;-64
2023/04/18 10:29:51;;;;;;;4.50;3.80;;;;;;;;;;5063785;28;20080;-64
2023/04/18 10:32:19;;;;;;;4.55;4.18;;;;;;;;;;5063610;28;20509;-64
2023/04/18 10:34:53;;;;;;;7.20;4.40;;;;;;;;;;5063201;28;20762;-64
2023/04/18 10:37:19;;;;;;;3.95;3.60;;;;;;;;;;5047905;28;20055;-64
2023/04/18 10:40:01;;;;;;;5.88;4.50;;;;;;;;;;5039167;28;20049;-65
2023/04/18 10:42:47;;;;;;;5.07;4.25;;;;;;;;;;5041498;28;20303;-64
2023/04/18 10:45:24;;;;;;;4.75;4.07;;;;;;;;;;5040674;28;20495;-64
2023/04/18 10:47:50;;;;;;;4.63;4.22;;;;;;;;;;5043323;28;20052;-65
2023/04/18 10:50:17;;;;;;;5.47;4.78;;;;;;;;;;5045108;28;20568;-65
2023/04/18 10:52:43;;;;;;;6.15;4.57;;;;;;;;;;5044814;28;20048;-65
2023/04/18 10:55:15;;;;;;;5.25;4.75;;;;;;;;;;5042675;28;20502;-65
2023/04/18 10:57:49;;;;;;;5.35;4.85;;;;;;;;;;5043391;28;20057;-65
2023/04/18 11:00:16;;;;;;;6.07;4.75;;;;;;;;;;5044720;28;20344;-65
2023/04/18 11:02:50;;;;;;;5.70;5.20;;;;;;;;;;5042077;28;20120;-65
2023/04/18 11:05:20;;;;;;;6.55;4.40;;;;;;;;;;5044770;28;20048;-65
2023/04/18 11:07:49;;;;;;;5.22;4.75;;;;;;;;;;5029075;28;20045;-64
2023/04/18 11:10:19;;;;;;;5.38;4.00;;;;;;;;;;5022651;28;20080;-64
2023/04/18 11:12:46;;;;;;;5.00;3.92;;;;;;;;;;5029748;28;20067;-64
2023/04/18 11:15:16;;;;;;;6.47;4.93;;;;;;;;;;5031746;28;20085;-64
2023/04/18 11:17:42;;;;;;;5.57;4.38;;;;;;;;;;5028307;28;20061;-63
2023/04/18 11:20:10;;;;;;;4.65;4.25;;;;;;;;;;5044118;28;20063;-63
2023/04/18 11:22:55;;;;;;;4.40;3.50;;;;;;;;;;5043402;28;20063;-64
2023/04/18 11:25:25;;;;;;;4.90;4.40;;;;;;;;;;5048740;28;20064;-64
2023/04/18 11:27:51;;;;;;;3.85;3.55;;;;;;;;;;5047315;28;20044;-64
2023/04/18 11:30:18;;;;;;;4.65;4.25;;;;;;;;;;5046680;28;20056;-64
2023/04/18 11:32:44;;;;;;;6.07;4.10;;;;;;;;;;5047045;28;20464;-64
2023/04/18 11:35:11;;;;;;;4.55;4.15;;;;;;;;;;5047125;28;20053;-64
2023/04/18 11:37:38;;;;;;;5.30;4.30;;;;;;;;;;5047859;28;20128;-64
2023/04/18 11:40:07;;;;;;;3.80;3.40;;;;;;;;;;5047015;28;20049;-65
2023/04/18 11:42:34;;;;;;;4.13;3.78;;;;;;;;;;5048877;28;20380;-64
2023/04/18 11:45:00;;;;;;;3.55;3.25;;;;;;;;;;5046513;28;20057;-64
2023/04/18 11:47:27;;;;;;;4.53;3.15;;;;;;;;;;5047162;28;20049;-64
2023/04/18 11:49:57;;;;;;;4.00;3.25;;;;;;;;;;5047078;28;20519;-64
2023/04/18 11:52:23;;;;;;;3.88;3.55;;;;;;;;;;5046546;28;20048;-64
2023/04/18 11:54:50;;;;;;;4.65;3.20;;;;;;;;;;5046860;28;20487;-64
2023/04/18 11:57:23;;;;;;;3.78;3.08;;;;;;;;;;5048127;28;20766;-64
2023/04/18 11:59:53;;;;;;;3.13;2.83;;;;;;;;;;5046988;28;20177;-65
2023/04/18 12:02:20;;;;;;;3.33;3.10;;;;;;;;;;5048685;28;20037;-65
2023/04/18 12:04:54;;;;;;;3.40;3.10;;;;;;;;;;5047451;28;20138;-65
2023/04/18 12:07:30;;;;;;;3.15;2.80;;;;;;;;;;5047502;28;20178;-65
2023/04/18 12:09:56;;;;;;;4.38;2.80;;;;;;;;;;5045432;28;20065;-64
2023/04/18 12:12:22;;;;;;;4.20;3.25;;;;;;;;;;5044821;28;20702;-64
2023/04/18 12:14:49;;;;;;;2.92;2.72;;;;;;;;;;5044991;28;20103;-64
2023/04/18 12:17:15;;;;;;;3.00;2.70;;;;;;;;;;5046708;28;20049;-64
2023/04/18 12:19:46;;;;;;;2.70;2.50;;;;;;;;;;5045736;28;20049;-65
2023/04/18 12:22:15;;;;;;;7.30;2.88;;;;;;;;;;5046672;28;20103;-64
2023/04/18 12:24:42;;;;;;;2.50;2.30;;;;;;;;;;5047580;28;20059;-64
2023/04/18 12:27:08;;;;;;;4.15;2.60;;;;;;;;;;5045199;28;20388;-65
2023/04/18 12:29:34;;;;;;;3.70;2.30;;;;;;;;;;5047564;28;20060;-65
2023/04/18 12:32:00;;;;;;;2.60;2.38;;;;;;;;;;5045326;28;20052;-65
2023/04/18 12:34:26;;;;;;;3.22;2.28;;;;;;;;;;5044748;28;20107;-65
2023/04/18 12:36:52;;;;;;;2.50;2.30;;;;;;;;;;5045836;28;20136;-65
2023/04/18 12:39:19;;;;;;;3.88;2.30;;;;;;;;;;5047352;28;20049;-64
2023/04/18 12:41:45;;;;;;;3.20;2.90;;;;;;;;;;5046425;28;20049;-64
2023/04/18 12:44:11;;;;;;;5.50;2.65;;;;;;;;;;5045714;28;20057;-65
2023/04/18 12:46:37;;;;;;;2.55;2.35;;;;;;;;;;5045849;28;20776;-65
2023/04/18 12:49:03;;;;;;;2.28;2.08;;;;;;;;;;5046336;28;20102;-65
2023/04/18 12:51:30;;;;;;;3.58;2.63;;;;;;;;;;5047482;28;20483;-65
2023/04/18 12:53:56;;;;;;;1.60;1.50;;;;;;;;;;5046955;28;20084;-65
2023/04/18 12:56:22;;;;;;;3.33;2.83;;;;;;;;;;5034971;28;20733;-65
2023/04/18 12:58:48;;;;;;;3.28;2.83;;;;;;;;;;5032754;28;20053;-65
2023/04/18 13:01:15;;;;;;;2.47;2.28;;;;;;;;;;5040705;28;20047;-65
2023/04/18 13:03:41;;;;;;;3.40;3.10;;;;;;;;;;5037009;28;20389;-65
2023/04/18 13:06:08;;;;;;;3.50;3.20;;;;;;;;;;5038084;28;20151;-65
2023/04/18 13:08:34;;;;;;;3.25;2.97;;;;;;;;;;5032791;28;20710;-65
2023/04/18 13:11:00;;;;;;;3.05;2.75;;;;;;;;;;5038360;28;20041;-65
2023/04/18 13:13:26;;;;;;;2.97;2.58;;;;;;;;;;5044651;28;20047;-65
2023/04/18 13:15:52;;;;;;;3.40;3.10;;;;;;;;;;5040967;28;20045;-65
2023/04/18 13:18:18;;;;;;;3.42;3.00;;;;;;;;;;5037651;28;20131;-65
2023/04/18 13:20:44;;;;;;;2.85;2.65;;;;;;;;;;5036947;28;20464;-65
2023/04/18 13:23:10;;;;;;;3.80;2.83;;;;;;;;;;5035627;28;20059;-65
2023/04/18 13:25:36;;;;;;;5.05;3.35;;;;;;;;;;5039567;28;20053;-65
2023/04/18 13:28:02;;;;;;;3.90;3.60;;;;;;;;;;5041434;28;20049;-65
2023/04/18 13:30:28;;;;;;;4.15;3.28;;;;;;;;;;5039518;28;20044;-65
2023/04/18 13:32:55;;;;;;;3.03;2.80;;;;;;;;;;5044798;28;20119;-65
2023/04/18 13:35:21;;;;;;;2.85;2.65;;;;;;;;;;5039687;28;20051;-65
2023/04/18 13:37:47;;;;;;;3.00;2.80;;;;;;;;;;5036071;28;20041;-65
2023/04/18 13:40:13;;;;;;;3.03;2.80;;;;;;;;;;5039626;28;20063;-65
2023/04/18 13:42:39;;;;;;;3.97;3.60;;;;;;;;;;5041905;28;20132;-65
2023/04/18 13:45:06;;;;;;;4.50;3.45;;;;;;;;;;5043809;28;20090;-65
2023/04/18 13:47:32;;;;;;;3.75;3.45;;;;;;;;;;5041448;28;20053;-65
2023/04/18 13:49:58;;;;;;;4.22;3.83;;;;;;;;;;5042723;28;20049;-64
2023/04/18 13:52:24;;;;;;;4.53;4.00;;;;;;;;;;5031821;28;20257;-65
2023/04/18 13:54:50;;;;;;;4.22;3.60;;;;;;;;;;5035271;28;20060;-70
2023/04/18 13:57:16;;;;;;;6.70;3.78;;;;;;;;;;5042109;28;20049;-65
2023/04/18 13:59:42;;;;;;;6.32;4.90;;;;;;;;;;5028417;28;20053;-65
2023/04/18 14:02:09;;;;;;;5.18;4.53;;;;;;;;;;5043095;28;20081;-65
2023/04/18 14:04:35;;;;;;;5.63;4.95;;;;;;;;;;5026918;28;20053;-64
2023/04/18 14:07:02;;;;;;;5.65;4.93;;;;;;;;;;5025085;28;20060;-65
2023/04/18 14:09:28;;;;;;;5.47;4.97;;;;;;;;;;5032786;28;20087;-64
2023/04/18 14:11:54;;;;;;;4.22;3.92;;;;;;;;;;5040518;28;20049;-64
2023/04/18 14:14:22;;;;;;;3.65;3.33;;;;;;;;;;5036967;28;20049;-65
2023/04/18 14:16:48;;;;;;;4.50;4.10;;;;;;;;;;5033435;28;20053;-64
2023/04/18 14:19:13;;;;;;;5.88;5.28;;;;;;;;;;5041173;28;20109;-64
2023/04/18 14:21:39;;;;;;;5.22;4.80;;;;;;;;;;5040649;28;20044;-64
2023/04/18 14:24:06;;;;;;;7.28;5.95;;;;;;;;;;5038595;28;20665;-65
2023/04/18 14:26:32;;;;;;;7.88;6.80;;;;;;;;;;5035542;28;20395;-64
2023/04/18 14:28:58;;;;;;;6.90;5.78;;;;;;;;;;5042468;28;20052;-65
2023/04/18 14:31:24;;;;;;;6.25;5.75;;;;;;;;;;5037518;28;20043;-64
2023/04/18 14:33:51;;;;;;;6.43;5.40;;;;;;;;;;5033846;28;20616;-64
2023/04/18 14:36:17;;;;;;;5.93;5.32;;;;;;;;;;5040487;28;20514;-64
2023/04/18 14:38:46;;;;;;;5.93;5.43;;;;;;;;;;5035756;28;20060;-64
2023/04/18 14:41:12;;;;;;;7.18;5.28;;;;;;;;;;5040203;28;20153;-64